sensor_id;sensor_type;location;lat;lon;timestamp;temperature;humidity
21214;DHT22;10764;50.850;2.904;2023-02-03T00:01:07;18.40;57.80
21214;DHT22;10764;50.850;2.904;2023-02-03T00:03:34;18.80;58.10
21214;DHT22;10764;50.850;2.904;2023-02-03T00:06:02;17.50;57.40
21214;DHT22;10764;50.850;2.904;2023-02-03T00:08:29;17.20;58.00
21214;DHT22;10764;50.850;2.904;2023-02-03T00:10:58;17.80;57.70
21214;DHT22;10764;50.850;2.904;2023-02-03T00:13:25;18.90;58.10
21214;DHT22;10764;50.850;2.904;2023-02-03T00:15:52;18.70;58.00
21214;DHT22;10764;50.850;2.904;2023-02-03T00:18:19;17.90;57.60
21214;DHT22;10764;50.850;2.904;2023-02-03T00:20:45;18.30;57.80
21214;DHT22;10764;50.850;2.904;2023-02-03T00:23:12;18.10;57.70
21214;DHT22;10764;50.850;2.904;2023-02-03T00:25:39;17.20;57.30
21214;DHT22;10764;50.850;2.904;2023-02-03T00:28:07;18.10;57.80
21214;DHT22;10764;50.850;2.904;2023-02-03T00:30:34;17.90;57.70
21214;DHT22;10764;50.850;2.904;2023-02-03T00:33:02;17.40;57.40
21214;DHT22;10764;50.850;2.904;2023-02-03T00:35:29;19.50;58.50
21214;DHT22;10764;50.850;2.904;2023-02-03T00:37:57;19.00;58.30
21214;DHT22;10764;50.850;2.904;2023-02-03T00:40:25;17.60;57.50
21214;DHT22;10764;50.850;2.904;2023-02-03T00:42:52;18.30;57.90
21214;DHT22;10764;50.850;2.904;2023-02-03T00:45:20;18.20;57.90
21214;DHT22;10764;50.850;2.904;2023-02-03T00:47:47;17.30;57.40
21214;DHT22;10764;50.850;2.904;2023-02-03T00:50:14;17.90;57.70
21214;DHT22;10764;50.850;2.904;2023-02-03T00:52:41;17.20;57.40
21214;DHT22;10764;50.850;2.904;2023-02-03T00:55:07;19.00;58.30
21214;DHT22;10764;50.850;2.904;2023-02-03T00:57:35;18.90;58.30
21214;DHT22;10764;50.850;2.904;2023-02-03T01:00:02;17.30;57.50
21214;DHT22;10764;50.850;2.904;2023-02-03T01:02:29;17.30;57.40
21214;DHT22;10764;50.850;2.904;2023-02-03T01:04:56;19.00;58.30
21214;DHT22;10764;50.850;2.904;2023-02-03T01:07:25;17.20;57.50
21214;DHT22;10764;50.850;2.904;2023-02-03T01:09:53;17.60;57.70
21214;DHT22;10764;50.850;2.904;2023-02-03T01:12:19;19.00;58.30
21214;DHT22;10764;50.850;2.904;2023-02-03T01:14:46;17.60;57.70
21214;DHT22;10764;50.850;2.904;2023-02-03T01:17:13;18.10;57.90
21214;DHT22;10764;50.850;2.904;2023-02-03T01:19:40;17.20;57.50
21214;DHT22;10764;50.850;2.904;2023-02-03T01:22:07;18.10;57.90
21214;DHT22;10764;50.850;2.904;2023-02-03T01:24:33;18.50;58.20
21214;DHT22;10764;50.850;2.904;2023-02-03T01:27:00;18.80;58.30
21214;DHT22;10764;50.850;2.904;2023-02-03T01:29:27;18.20;58.10
21214;DHT22;10764;50.850;2.904;2023-02-03T01:31:54;18.30;58.10
21214;DHT22;10764;50.850;2.904;2023-02-03T01:34:21;17.80;57.80
21214;DHT22;10764;50.850;2.904;2023-02-03T01:36:50;17.40;57.70
21214;DHT22;10764;50.850;2.904;2023-02-03T01:39:17;17.20;57.60
21214;DHT22;10764;50.850;2.904;2023-02-03T01:41:44;17.30;57.70
21214;DHT22;10764;50.850;2.904;2023-02-03T01:46:59;17.20;57.70
21214;DHT22;10764;50.850;2.904;2023-02-03T01:49:34;18.30;58.30
21214;DHT22;10764;50.850;2.904;2023-02-03T01:52:02;18.30;58.30
21214;DHT22;10764;50.850;2.904;2023-02-03T01:54:32;17.30;57.70
21214;DHT22;10764;50.850;2.904;2023-02-03T01:57:06;17.30;57.80
21214;DHT22;10764;50.850;2.904;2023-02-03T01:59:36;18.60;58.40
21214;DHT22;10764;50.850;2.904;2023-02-03T02:02:03;19.00;58.60
21214;DHT22;10764;50.850;2.904;2023-02-03T02:05:01;17.30;57.70
21214;DHT22;10764;50.850;2.904;2023-02-03T02:07:30;17.20;57.70
21214;DHT22;10764;50.850;2.904;2023-02-03T02:09:59;17.50;57.80
21214;DHT22;10764;50.850;2.904;2023-02-03T02:12:26;18.30;58.20
21214;DHT22;10764;50.850;2.904;2023-02-03T02:14:53;18.10;58.10
21214;DHT22;10764;50.850;2.904;2023-02-03T02:17:27;18.80;58.50
21214;DHT22;10764;50.850;2.904;2023-02-03T02:22:59;17.60;57.90
21214;DHT22;10764;50.850;2.904;2023-02-03T02:34:27;18.10;58.10
21214;DHT22;10764;50.850;2.904;2023-02-03T02:37:13;17.20;57.70
21214;DHT22;10764;50.850;2.904;2023-02-03T02:40:13;17.80;58.00
21214;DHT22;10764;50.850;2.904;2023-02-03T02:42:45;17.30;57.70
21214;DHT22;10764;50.850;2.904;2023-02-03T02:45:27;17.70;57.90
21214;DHT22;10764;50.850;2.904;2023-02-03T02:48:01;17.60;57.90
21214;DHT22;10764;50.850;2.904;2023-02-03T02:50:33;17.20;57.60
21214;DHT22;10764;50.850;2.904;2023-02-03T02:53:04;18.20;58.10
21214;DHT22;10764;50.850;2.904;2023-02-03T02:55:34;17.30;57.70
21214;DHT22;10764;50.850;2.904;2023-02-03T02:58:08;17.80;58.00
21214;DHT22;10764;50.850;2.904;2023-02-03T03:00:38;19.10;58.60
21214;DHT22;10764;50.850;2.904;2023-02-03T03:03:17;18.60;58.40
21214;DHT22;10764;50.850;2.904;2023-02-03T03:05:54;17.30;57.70
21214;DHT22;10764;50.850;2.904;2023-02-03T03:11:09;17.30;57.70
21214;DHT22;10764;50.850;2.904;2023-02-03T03:13:44;18.70;58.30
21214;DHT22;10764;50.850;2.904;2023-02-03T03:16:17;17.30;57.70
21214;DHT22;10764;50.850;2.904;2023-02-03T03:18:58;18.10;58.10
21214;DHT22;10764;50.850;2.904;2023-02-03T03:21:29;17.30;57.70
21214;DHT22;10764;50.850;2.904;2023-02-03T03:24:01;18.50;58.20
21214;DHT22;10764;50.850;2.904;2023-02-03T03:27:23;18.90;58.40
21214;DHT22;10764;50.850;2.904;2023-02-03T03:29:32;17.30;57.70
21214;DHT22;10764;50.850;2.904;2023-02-03T03:32:01;17.60;57.90
21214;DHT22;10764;50.850;2.904;2023-02-03T03:34:29;18.30;58.20
21214;DHT22;10764;50.850;2.904;2023-02-03T03:37:01;18.80;58.40
21214;DHT22;10764;50.850;2.904;2023-02-03T03:39:44;18.70;58.40
21214;DHT22;10764;50.850;2.904;2023-02-03T03:42:35;17.20;57.60
21214;DHT22;10764;50.850;2.904;2023-02-03T03:45:14;17.20;57.60
21214;DHT22;10764;50.850;2.904;2023-02-03T03:50:29;17.30;57.70
21214;DHT22;10764;50.850;2.904;2023-02-03T03:52:59;17.30;57.60
21214;DHT22;10764;50.850;2.904;2023-02-03T03:55:31;19.10;58.50
21214;DHT22;10764;50.850;2.904;2023-02-03T03:58:03;18.80;58.40
21214;DHT22;10764;50.850;2.904;2023-02-03T04:00:34;18.70;58.30
21214;DHT22;10764;50.850;2.904;2023-02-03T04:03:16;17.30;57.60
21214;DHT22;10764;50.850;2.904;2023-02-03T04:05:45;17.50;57.70
21214;DHT22;10764;50.850;2.904;2023-02-03T04:08:12;17.30;57.60
21214;DHT22;10764;50.850;2.904;2023-02-03T04:10:40;17.40;57.70
21214;DHT22;10764;50.850;2.904;2023-02-03T04:13:08;18.60;58.30
21214;DHT22;10764;50.850;2.904;2023-02-03T04:15:36;17.50;57.70
21214;DHT22;10764;50.850;2.904;2023-02-03T04:18:04;17.30;57.60
21214;DHT22;10764;50.850;2.904;2023-02-03T04:20:32;17.30;57.60
21214;DHT22;10764;50.850;2.904;2023-02-03T04:22:59;17.30;57.60
21214;DHT22;10764;50.850;2.904;2023-02-03T04:25:26;18.20;58.00
21214;DHT22;10764;50.850;2.904;2023-02-03T04:27:53;17.30;57.60
21214;DHT22;10764;50.850;2.904;2023-02-03T04:30:23;19.10;58.40
21214;DHT22;10764;50.850;2.904;2023-02-03T04:32:50;17.60;58.50
21214;DHT22;10764;50.850;2.904;2023-02-03T04:35:16;18.90;58.30
21214;DHT22;10764;50.850;2.904;2023-02-03T04:37:44;17.50;57.70
21214;DHT22;10764;50.850;2.904;2023-02-03T04:40:11;18.80;58.30
21214;DHT22;10764;50.850;2.904;2023-02-03T04:42:39;17.50;57.60
21214;DHT22;10764;50.850;2.904;2023-02-03T04:45:08;17.30;57.50
21214;DHT22;10764;50.850;2.904;2023-02-03T04:47:35;17.30;57.50
21214;DHT22;10764;50.850;2.904;2023-02-03T04:50:02;18.40;58.10
21214;DHT22;10764;50.850;2.904;2023-02-03T04:52:29;17.30;57.60
21214;DHT22;10764;50.850;2.904;2023-02-03T04:54:56;19.10;58.40
21214;DHT22;10764;50.850;2.904;2023-02-03T04:57:23;18.30;58.00
21214;DHT22;10764;50.850;2.904;2023-02-03T04:59:50;18.40;58.00
21214;DHT22;10764;50.850;2.904;2023-02-03T05:02:16;17.50;57.60
21214;DHT22;10764;50.850;2.904;2023-02-03T05:04:43;17.70;57.70
21214;DHT22;10764;50.850;2.904;2023-02-03T05:07:10;18.30;58.00
21214;DHT22;10764;50.850;2.904;2023-02-03T05:09:37;17.80;57.80
21214;DHT22;10764;50.850;2.904;2023-02-03T05:12:04;18.80;58.20
21214;DHT22;10764;50.850;2.904;2023-02-03T05:14:30;17.30;57.50
21214;DHT22;10764;50.850;2.904;2023-02-03T05:16:57;17.90;57.80
21214;DHT22;10764;50.850;2.904;2023-02-03T05:19:24;18.90;58.30
21214;DHT22;10764;50.850;2.904;2023-02-03T05:21:51;18.40;58.00
21214;DHT22;10764;50.850;2.904;2023-02-03T05:24:18;17.50;57.60
21214;DHT22;10764;50.850;2.904;2023-02-03T05:26:44;18.70;58.20
21214;DHT22;10764;50.850;2.904;2023-02-03T05:29:11;18.80;58.20
21214;DHT22;10764;50.850;2.904;2023-02-03T05:31:38;18.70;58.10
21214;DHT22;10764;50.850;2.904;2023-02-03T05:34:05;17.60;57.60
21214;DHT22;10764;50.850;2.904;2023-02-03T05:36:32;17.80;57.70
21214;DHT22;10764;50.850;2.904;2023-02-03T05:38:59;17.30;57.40
21214;DHT22;10764;50.850;2.904;2023-02-03T05:41:25;19.20;58.40
21214;DHT22;10764;50.850;2.904;2023-02-03T05:44:11;17.30;57.50
21214;DHT22;10764;50.850;2.904;2023-02-03T05:46:37;18.50;58.10
21214;DHT22;10764;50.850;2.904;2023-02-03T05:49:04;19.20;58.40
21214;DHT22;10764;50.850;2.904;2023-02-03T05:51:31;17.30;57.50
21214;DHT22;10764;50.850;2.904;2023-02-03T05:53:58;18.00;57.80
21214;DHT22;10764;50.850;2.904;2023-02-03T05:56:24;17.50;57.50
21214;DHT22;10764;50.850;2.904;2023-02-03T05:58:53;19.00;58.30
21214;DHT22;10764;50.850;2.904;2023-02-03T06:01:19;18.20;57.90
21214;DHT22;10764;50.850;2.904;2023-02-03T06:03:47;19.40;58.50
21214;DHT22;10764;50.850;2.904;2023-02-03T06:06:16;19.10;58.30
21214;DHT22;10764;50.850;2.904;2023-02-03T06:08:43;17.50;57.60
21214;DHT22;10764;50.850;2.904;2023-02-03T06:11:10;18.40;58.00
21214;DHT22;10764;50.850;2.904;2023-02-03T06:13:37;18.90;58.30
21214;DHT22;10764;50.850;2.904;2023-02-03T06:16:04;19.30;58.40
21214;DHT22;10764;50.850;2.904;2023-02-03T06:18:31;17.30;57.50
21214;DHT22;10764;50.850;2.904;2023-02-03T06:20:58;17.50;57.50
21214;DHT22;10764;50.850;2.904;2023-02-03T06:23:25;17.90;57.80
21214;DHT22;10764;50.850;2.904;2023-02-03T06:25:52;17.80;57.80
21214;DHT22;10764;50.850;2.904;2023-02-03T06:28:18;19.20;58.40
21214;DHT22;10764;50.850;2.904;2023-02-03T06:30:49;17.50;57.60
21214;DHT22;10764;50.850;2.904;2023-02-03T06:33:17;17.30;57.40
21214;DHT22;10764;50.850;2.904;2023-02-03T06:35:44;18.00;57.80
21214;DHT22;10764;50.850;2.904;2023-02-03T06:38:11;19.10;58.40
21214;DHT22;10764;50.850;2.904;2023-02-03T06:40:40;19.20;58.40
21214;DHT22;10764;50.850;2.904;2023-02-03T06:43:07;18.80;58.20
21214;DHT22;10764;50.850;2.904;2023-02-03T06:45:33;18.90;58.30
21214;DHT22;10764;50.850;2.904;2023-02-03T06:48:00;19.30;58.50
21214;DHT22;10764;50.850;2.904;2023-02-03T06:50:30;19.20;58.40
21214;DHT22;10764;50.850;2.904;2023-02-03T06:52:56;19.20;58.40
21214;DHT22;10764;50.850;2.904;2023-02-03T06:55:23;18.20;57.90
21214;DHT22;10764;50.850;2.904;2023-02-03T06:57:50;18.60;58.10
21214;DHT22;10764;50.850;2.904;2023-02-03T07:00:17;17.40;57.50
21214;DHT22;10764;50.850;2.904;2023-02-03T07:02:49;17.40;57.50
21214;DHT22;10764;50.850;2.904;2023-02-03T07:05:18;19.10;58.30
21214;DHT22;10764;50.850;2.904;2023-02-03T07:07:45;17.40;57.50
21214;DHT22;10764;50.850;2.904;2023-02-03T07:10:12;17.40;57.40
21214;DHT22;10764;50.850;2.904;2023-02-03T07:12:39;17.30;57.40
21214;DHT22;10764;50.850;2.904;2023-02-03T07:15:06;19.00;58.20
21214;DHT22;10764;50.850;2.904;2023-02-03T07:17:35;17.30;57.40
21214;DHT22;10764;50.850;2.904;2023-02-03T07:20:01;18.80;58.10
21214;DHT22;10764;50.850;2.904;2023-02-03T07:22:28;17.40;57.50
21214;DHT22;10764;50.850;2.904;2023-02-03T07:24:55;17.90;57.80
21214;DHT22;10764;50.850;2.904;2023-02-03T07:27:25;18.80;58.30
21214;DHT22;10764;50.850;2.904;2023-02-03T07:29:53;17.70;57.70
21214;DHT22;10764;50.850;2.904;2023-02-03T07:32:20;17.40;57.60
21214;DHT22;10764;50.850;2.904;2023-02-03T07:34:47;19.40;58.60
21214;DHT22;10764;50.850;2.904;2023-02-03T07:37:13;17.30;57.60
21214;DHT22;10764;50.850;2.904;2023-02-03T07:39:40;17.90;57.90
21214;DHT22;10764;50.850;2.904;2023-02-03T07:42:07;17.80;57.80
21214;DHT22;10764;50.850;2.904;2023-02-03T07:44:37;17.30;57.60
21214;DHT22;10764;50.850;2.904;2023-02-03T07:47:04;18.30;58.10
21214;DHT22;10764;50.850;2.904;2023-02-03T07:49:30;17.60;57.70
21214;DHT22;10764;50.850;2.904;2023-02-03T07:51:57;17.40;57.70
21214;DHT22;10764;50.850;2.904;2023-02-03T07:54:24;18.70;58.50
21214;DHT22;10764;50.850;2.904;2023-02-03T07:56:54;17.40;58.20
21214;DHT22;10764;50.850;2.904;2023-02-03T07:59:21;17.90;58.60
21214;DHT22;10764;50.850;2.904;2023-02-03T08:01:48;17.90;58.80
21214;DHT22;10764;50.850;2.904;2023-02-03T08:04:15;18.60;59.30
21214;DHT22;10764;50.850;2.904;2023-02-03T08:06:43;17.90;59.00
21214;DHT22;10764;50.850;2.904;2023-02-03T08:09:09;19.00;59.60
21214;DHT22;10764;50.850;2.904;2023-02-03T08:11:36;18.30;59.40
21214;DHT22;10764;50.850;2.904;2023-02-03T08:14:03;18.20;59.40
21214;DHT22;10764;50.850;2.904;2023-02-03T08:16:30;17.90;59.30
21214;DHT22;10764;50.850;2.904;2023-02-03T08:18:56;18.10;59.40
21214;DHT22;10764;50.850;2.904;2023-02-03T08:21:23;18.20;59.40
21214;DHT22;10764;50.850;2.904;2023-02-03T08:23:52;19.40;60.00
21214;DHT22;10764;50.850;2.904;2023-02-03T08:26:19;17.40;59.10
21214;DHT22;10764;50.850;2.904;2023-02-03T08:28:49;18.20;59.40
21214;DHT22;10764;50.850;2.904;2023-02-03T08:31:16;17.40;59.00
21214;DHT22;10764;50.850;2.904;2023-02-03T08:33:46;19.20;59.90
21214;DHT22;10764;50.850;2.904;2023-02-03T08:36:12;18.90;59.70
21214;DHT22;10764;50.850;2.904;2023-02-03T08:38:40;18.70;59.70
21214;DHT22;10764;50.850;2.904;2023-02-03T08:41:12;18.80;59.70
21214;DHT22;10764;50.850;2.904;2023-02-03T08:43:39;17.50;59.10
21214;DHT22;10764;50.850;2.904;2023-02-03T08:46:07;18.30;59.40
21214;DHT22;10764;50.850;2.904;2023-02-03T08:48:34;18.90;59.60
21214;DHT22;10764;50.850;2.904;2023-02-03T08:51:01;17.50;58.80
21214;DHT22;10764;50.850;2.904;2023-02-03T08:53:28;17.50;58.80
21214;DHT22;10764;50.850;2.904;2023-02-03T08:55:55;18.80;59.40
21214;DHT22;10764;50.850;2.904;2023-02-03T08:58:22;18.90;59.40
21214;DHT22;10764;50.850;2.904;2023-02-03T09:00:48;18.10;59.00
21214;DHT22;10764;50.850;2.904;2023-02-03T09:03:18;19.20;59.50
21214;DHT22;10764;50.850;2.904;2023-02-03T09:05:47;18.80;59.30
21214;DHT22;10764;50.850;2.904;2023-02-03T09:08:14;17.80;58.80
21214;DHT22;10764;50.850;2.904;2023-02-03T09:10:43;19.60;59.60
21214;DHT22;10764;50.850;2.904;2023-02-03T09:13:10;18.70;59.60
21214;DHT22;10764;50.850;2.904;2023-02-03T09:15:37;17.50;58.60
21214;DHT22;10764;50.850;2.904;2023-02-03T09:18:04;17.50;58.60
21214;DHT22;10764;50.850;2.904;2023-02-03T09:20:31;17.50;58.60
21214;DHT22;10764;50.850;2.904;2023-02-03T09:22:58;19.10;59.40
21214;DHT22;10764;50.850;2.904;2023-02-03T09:25:25;18.00;58.70
21214;DHT22;10764;50.850;2.904;2023-02-03T09:27:52;17.90;58.70
21214;DHT22;10764;50.850;2.904;2023-02-03T09:30:21;18.20;58.80
21214;DHT22;10764;50.850;2.904;2023-02-03T09:32:52;17.50;58.40
21214;DHT22;10764;50.850;2.904;2023-02-03T09:35:20;18.90;59.10
21214;DHT22;10764;50.850;2.904;2023-02-03T09:37:47;18.60;58.90
21214;DHT22;10764;50.850;2.904;2023-02-03T09:40:28;18.10;58.60
21214;DHT22;10764;50.850;2.904;2023-02-03T09:43:18;17.50;58.30
21214;DHT22;10764;50.850;2.904;2023-02-03T09:45:47;18.00;58.50
21214;DHT22;10764;50.850;2.904;2023-02-03T09:48:21;17.50;58.30
21214;DHT22;10764;50.850;2.904;2023-02-03T09:50:51;19.30;59.10
21214;DHT22;10764;50.850;2.904;2023-02-03T09:55:54;17.60;58.20
21214;DHT22;10764;50.850;2.904;2023-02-03T09:58:21;17.60;58.20
21214;DHT22;10764;50.850;2.904;2023-02-03T10:00:53;18.30;58.40
21214;DHT22;10764;50.850;2.904;2023-02-03T10:03:40;17.90;58.20
21214;DHT22;10764;50.850;2.904;2023-02-03T10:06:23;17.70;58.10
21214;DHT22;10764;50.850;2.904;2023-02-03T10:09:05;17.90;58.20
21214;DHT22;10764;50.850;2.904;2023-02-03T10:19:54;17.60;58.10
21214;DHT22;10764;50.850;2.904;2023-02-03T10:22:25;17.60;58.20
21214;DHT22;10764;50.850;2.904;2023-02-03T10:25:02;19.60;59.10
21214;DHT22;10764;50.850;2.904;2023-02-03T10:27:34;19.00;58.80
21214;DHT22;10764;50.850;2.904;2023-02-03T10:30:24;18.90;58.70
21214;DHT22;10764;50.850;2.904;2023-02-03T10:33:11;17.60;58.10
21214;DHT22;10764;50.850;2.904;2023-02-03T10:41:15;17.50;58.10
21214;DHT22;10764;50.850;2.904;2023-02-03T10:43:43;17.90;58.20
21214;DHT22;10764;50.850;2.904;2023-02-03T10:46:15;19.50;59.00
21214;DHT22;10764;50.850;2.904;2023-02-03T10:48:42;17.80;58.20
21214;DHT22;10764;50.850;2.904;2023-02-03T10:51:25;18.60;58.60
21214;DHT22;10764;50.850;2.904;2023-02-03T10:53:52;17.60;58.10
21214;DHT22;10764;50.850;2.904;2023-02-03T10:56:29;17.80;58.30
21214;DHT22;10764;50.850;2.904;2023-02-03T10:58:58;17.70;58.10
21214;DHT22;10764;50.850;2.904;2023-02-03T11:01:28;19.40;58.90
21214;DHT22;10764;50.850;2.904;2023-02-03T11:04:05;17.70;58.10
21214;DHT22;10764;50.850;2.904;2023-02-03T11:06:33;18.70;58.50
21214;DHT22;10764;50.850;2.904;2023-02-03T11:09:21;17.60;57.90
21214;DHT22;10764;50.850;2.904;2023-02-03T11:12:16;18.60;58.50
21214;DHT22;10764;50.850;2.904;2023-02-03T11:14:48;17.60;58.00
21214;DHT22;10764;50.850;2.904;2023-02-03T11:17:20;17.60;58.00
21214;DHT22;10764;50.850;2.904;2023-02-03T11:19:57;18.50;58.40
21214;DHT22;10764;50.850;2.904;2023-02-03T11:22:35;17.60;57.90
21214;DHT22;10764;50.850;2.904;2023-02-03T11:25:19;19.40;58.80
21214;DHT22;10764;50.850;2.904;2023-02-03T11:27:48;17.60;57.90
21214;DHT22;10764;50.850;2.904;2023-02-03T11:30:23;18.10;58.20
21214;DHT22;10764;50.850;2.904;2023-02-03T11:32:51;17.60;57.90
21214;DHT22;10764;50.850;2.904;2023-02-03T11:35:24;17.60;57.90
21214;DHT22;10764;50.850;2.904;2023-02-03T11:37:54;17.60;57.90
21214;DHT22;10764;50.850;2.904;2023-02-03T11:40:34;18.20;58.20
21214;DHT22;10764;50.850;2.904;2023-02-03T11:43:24;17.60;57.90
21214;DHT22;10764;50.850;2.904;2023-02-03T11:45:52;18.90;58.60
21214;DHT22;10764;50.850;2.904;2023-02-03T11:48:30;19.10;58.70
21214;DHT22;10764;50.850;2.904;2023-02-03T12:04:48;17.60;57.90
21214;DHT22;10764;50.850;2.904;2023-02-03T12:07:43;17.60;57.90
21214;DHT22;10764;50.850;2.904;2023-02-03T12:10:27;17.60;57.90
21214;DHT22;10764;50.850;2.904;2023-02-03T12:13:02;17.70;58.00
21214;DHT22;10764;50.850;2.904;2023-02-03T12:15:52;17.60;57.90
21214;DHT22;10764;50.850;2.904;2023-02-03T12:21:53;17.60;57.90
21214;DHT22;10764;50.850;2.904;2023-02-03T12:27:39;17.60;58.00
21214;DHT22;10764;50.850;2.904;2023-02-03T12:33:20;17.60;57.90
21214;DHT22;10764;50.850;2.904;2023-02-03T12:35:55;17.60;57.90
21214;DHT22;10764;50.850;2.904;2023-02-03T12:38:35;17.60;58.00
21214;DHT22;10764;50.850;2.904;2023-02-03T12:41:13;17.90;58.10
21214;DHT22;10764;50.850;2.904;2023-02-03T12:43:45;18.10;58.20
21214;DHT22;10764;50.850;2.904;2023-02-03T12:49:15;17.60;58.00
21214;DHT22;10764;50.850;2.904;2023-02-03T12:51:52;17.60;58.00
21214;DHT22;10764;50.850;2.904;2023-02-03T12:57:20;17.60;58.00
21214;DHT22;10764;50.850;2.904;2023-02-03T13:00:43;17.60;58.00
21214;DHT22;10764;50.850;2.904;2023-02-03T13:05:53;18.40;58.40
21214;DHT22;10764;50.850;2.904;2023-02-03T13:08:59;17.70;58.00
21214;DHT22;10764;50.850;2.904;2023-02-03T13:11:37;17.60;58.00
21214;DHT22;10764;50.850;2.904;2023-02-03T13:14:18;17.60;58.00
21214;DHT22;10764;50.850;2.904;2023-02-03T13:16:59;17.60;58.00
21214;DHT22;10764;50.850;2.904;2023-02-03T13:19:44;18.60;58.50
21214;DHT22;10764;50.850;2.904;2023-02-03T13:22:13;17.70;58.00
21214;DHT22;10764;50.850;2.904;2023-02-03T13:24:46;19.60;59.00
21214;DHT22;10764;50.850;2.904;2023-02-03T13:27:22;19.30;58.70
21214;DHT22;10764;50.850;2.904;2023-02-03T13:33:19;17.80;57.90
21214;DHT22;10764;50.850;2.904;2023-02-03T13:36:02;17.80;57.90
21214;DHT22;10764;50.850;2.904;2023-02-03T13:38:38;17.80;57.80
21214;DHT22;10764;50.850;2.904;2023-02-03T13:43:48;19.10;58.60
21214;DHT22;10764;50.850;2.904;2023-02-03T13:46:28;19.10;58.30
21214;DHT22;10764;50.850;2.904;2023-02-03T13:48:59;17.80;57.60
21214;DHT22;10764;50.850;2.904;2023-02-03T13:51:29;19.40;58.40
21214;DHT22;10764;50.850;2.904;2023-02-03T13:54:04;17.80;57.70
21214;DHT22;10764;50.850;2.904;2023-02-03T13:56:33;19.40;58.30
21214;DHT22;10764;50.850;2.904;2023-02-03T13:59:04;18.90;58.10
21214;DHT22;10764;50.850;2.904;2023-02-03T14:01:38;18.90;58.10
21214;DHT22;10764;50.850;2.904;2023-02-03T14:04:07;20.00;58.60
21214;DHT22;10764;50.850;2.904;2023-02-03T14:09:44;19.20;58.30
21214;DHT22;10764;50.850;2.904;2023-02-03T14:13:17;17.80;57.40
21214;DHT22;10764;50.850;2.904;2023-02-03T14:18:04;17.90;57.60
21214;DHT22;10764;50.850;2.904;2023-02-03T14:20:40;17.80;57.20
21214;DHT22;10764;50.850;2.904;2023-02-03T14:23:18;17.80;57.20
21214;DHT22;10764;50.850;2.904;2023-02-03T14:25:54;17.80;57.20
21214;DHT22;10764;50.850;2.904;2023-02-03T14:28:58;19.50;58.00
21214;DHT22;10764;50.850;2.904;2023-02-03T14:31:21;17.90;57.20
21214;DHT22;10764;50.850;2.904;2023-02-03T14:33:56;18.10;57.30
21214;DHT22;10764;50.850;2.904;2023-02-03T14:36:39;17.90;57.10
21214;DHT22;10764;50.850;2.904;2023-02-03T14:47:27;17.60;57.00
21214;DHT22;10764;50.850;2.904;2023-02-03T14:50:12;19.10;57.60
21214;DHT22;10764;50.850;2.904;2023-02-03T14:58:28;17.90;56.80
21214;DHT22;10764;50.850;2.904;2023-02-03T15:00:57;20.10;57.90
21214;DHT22;10764;50.850;2.904;2023-02-03T15:03:25;19.00;57.40
21214;DHT22;10764;50.850;2.904;2023-02-03T15:06:01;19.90;57.80
21214;DHT22;10764;50.850;2.904;2023-02-03T15:08:41;18.00;56.90
21214;DHT22;10764;50.850;2.904;2023-02-03T15:13:50;17.80;57.10
21214;DHT22;10764;50.850;2.904;2023-02-03T15:16:21;19.50;58.00
21214;DHT22;10764;50.850;2.904;2023-02-03T15:18:59;18.40;57.70
21214;DHT22;10764;50.850;2.904;2023-02-03T15:21:26;20.20;58.80
21214;DHT22;10764;50.850;2.904;2023-02-03T15:23:53;20.10;58.80
21214;DHT22;10764;50.850;2.904;2023-02-03T15:26:25;18.50;58.20
21214;DHT22;10764;50.850;2.904;2023-02-03T15:29:00;19.70;58.70
21214;DHT22;10764;50.850;2.904;2023-02-03T15:31:36;18.50;58.20
21214;DHT22;10764;50.850;2.904;2023-02-03T15:36:52;17.80;57.80
21214;DHT22;10764;50.850;2.904;2023-02-03T15:41:51;17.80;57.90
21214;DHT22;10764;50.850;2.904;2023-02-03T15:44:29;17.80;58.00
21214;DHT22;10764;50.850;2.904;2023-02-03T15:46:59;19.20;58.60
21214;DHT22;10764;50.850;2.904;2023-02-03T15:49:32;18.40;58.20
21214;DHT22;10764;50.850;2.904;2023-02-03T15:52:13;19.40;58.70
21214;DHT22;10764;50.850;2.904;2023-02-03T15:54:44;19.60;58.90
21214;DHT22;10764;50.850;2.904;2023-02-03T15:57:30;18.50;58.30
21214;DHT22;10764;50.850;2.904;2023-02-03T16:00:18;17.70;57.90
21214;DHT22;10764;50.850;2.904;2023-02-03T16:02:50;17.70;57.90
21214;DHT22;10764;50.850;2.904;2023-02-03T16:05:30;17.60;57.90
21214;DHT22;10764;50.850;2.904;2023-02-03T16:08:24;17.70;57.90
21214;DHT22;10764;50.850;2.904;2023-02-03T16:10:53;17.70;57.90
21214;DHT22;10764;50.850;2.904;2023-02-03T16:13:24;18.90;58.60
21214;DHT22;10764;50.850;2.904;2023-02-03T16:16:16;17.70;57.90
21214;DHT22;10764;50.850;2.904;2023-02-03T16:18:54;18.50;58.40
21214;DHT22;10764;50.850;2.904;2023-02-03T16:33:09;19.70;58.90
21214;DHT22;10764;50.850;2.904;2023-02-03T16:35:56;19.50;58.80
21214;DHT22;10764;50.850;2.904;2023-02-03T16:38:49;18.80;58.50
21214;DHT22;10764;50.850;2.904;2023-02-03T16:41:36;18.40;58.30
21214;DHT22;10764;50.850;2.904;2023-02-03T16:44:21;19.40;58.80
21214;DHT22;10764;50.850;2.904;2023-02-03T16:47:22;17.70;58.00
21214;DHT22;10764;50.850;2.904;2023-02-03T16:50:21;17.60;57.90
21214;DHT22;10764;50.850;2.904;2023-02-03T16:53:15;19.40;58.70
21214;DHT22;10764;50.850;2.904;2023-02-03T16:55:43;18.90;58.60
21214;DHT22;10764;50.850;2.904;2023-02-03T16:58:10;19.20;58.70
21214;DHT22;10764;50.850;2.904;2023-02-03T17:00:48;17.70;57.90
21214;DHT22;10764;50.850;2.904;2023-02-03T17:03:20;19.10;58.60
21214;DHT22;10764;50.850;2.904;2023-02-03T17:05:51;17.90;58.00
21214;DHT22;10764;50.850;2.904;2023-02-03T17:08:23;18.30;58.20
21214;DHT22;10764;50.850;2.904;2023-02-03T17:10:50;17.60;57.80
21214;DHT22;10764;50.850;2.904;2023-02-03T17:13:19;18.40;58.20
21214;DHT22;10764;50.850;2.904;2023-02-03T17:15:49;17.60;57.80
21214;DHT22;10764;50.850;2.904;2023-02-03T17:18:18;18.50;58.20
21214;DHT22;10764;50.850;2.904;2023-02-03T17:20:46;19.00;58.50
21214;DHT22;10764;50.850;2.904;2023-02-03T17:23:21;17.60;57.80
21214;DHT22;10764;50.850;2.904;2023-02-03T17:25:48;19.30;59.30
21214;DHT22;10764;50.850;2.904;2023-02-03T17:28:16;17.60;57.90
21214;DHT22;10764;50.850;2.904;2023-02-03T17:30:43;19.90;58.90
21214;DHT22;10764;50.850;2.904;2023-02-03T17:33:10;17.70;57.90
21214;DHT22;10764;50.850;2.904;2023-02-03T17:35:42;18.30;58.30
21214;DHT22;10764;50.850;2.904;2023-02-03T17:38:10;19.20;58.50
21214;DHT22;10764;50.850;2.904;2023-02-03T17:40:39;18.00;58.00
21214;DHT22;10764;50.850;2.904;2023-02-03T17:43:24;19.40;58.60
21214;DHT22;10764;50.850;2.904;2023-02-03T17:46:10;18.50;58.20
21214;DHT22;10764;50.850;2.904;2023-02-03T17:48:55;17.90;57.80
21214;DHT22;10764;50.850;2.904;2023-02-03T17:51:41;18.50;58.10
21214;DHT22;10764;50.850;2.904;2023-02-03T17:54:26;18.30;58.10